Main page
METAR-TAF:

METAR-TAF

Airports :

Kyiv International Airport (Zhuliany)

Kiev, Ukraine

latitude: 50-24N, longitude: 030-34E, elevation: 166 m

Current weather observation

The report was made 24 minutes ago, at 06:30 UTC
Wind 6 kt from the East/Southeast, varying between East and South/Southeast
Temperature 27°C
Humidity 39%
Pressure 1022 hPa
Visibility 10 km or more
no clouds below 1500 m and no cumulonimbus

METAR: UKKK 060630Z 11003MPS 080V150 CAVOK 27/12 Q1022 R08/70D NOSIG

Time: 09:54 (06:54 UTC)

Forecast

The report was made 1 hour and 53 minutes ago, at 05:01 UTC
Forecast valid from 06 at 06 UTC to 07 at 06 UTC
Wind 6 kt from the Northeast with gusts up to 16 kt
Visibility 10 km or more
no clouds below 1500 m and no cumulonimbus
Becoming
from 06 at 18 UTC to 06 at 20 UTC
Wind 6 kt from the North/Northeast

TAF: UKKK 060501Z 0606/0706 05003G08MPS CAVOK TX32/0613Z TN17/0703Z BECMG 0618/0620 02003MPS

Weather observations and forecasts of more than 4000 airports (METAR and TAF reports).

The available stations are represented by yellow and red dots on the map.

Hover mouse over dot to see the name of the station.

Then click to see weather observations and forecasts.

To change the map : click on the green buttons with a black cross to zoom in, on the green button with a dash to zoom out, or on the green arrows for adjacent maps.


METAR-TAF: